首页
METAR-TAF:

METAR-TAF

机场 :

利物浦约翰·列侬机场

利物浦, 英格兰

纬度: 53-20N, 经度: 002-51W, 海拔: 26米

当前天气观测

该预报发布于28分钟前的18:20 UTC
风速14节,风向西转西北
温度 4°C
湿度 93%
气压 1011 hPa
能见度10公里或以上
少量云层高于1200英尺
散云层高于2500英尺
多云层高于3000英尺
小阵雨

METAR: EGGP 181820Z 29014KT 9999 -SHRA FEW012 SCT025 BKN030 04/03 Q1011

时间: 18:48 (18:48 UTC)

预报

该预报发布于1小时和46分钟前的17:02 UTC
预报有效从18日的 18点(UTC)到 19日的 18点(UTC)
风速15节,风向西
能见度10公里或以上
散云层高于3000英尺
短暂存在
从 18日的 18点(UTC)到 18日的 20点(UTC)
风速18节,风向西,有时为30节阵风
能見度: 7000
阵雨
几率 30% :
短暂存在
从 18日的 18点(UTC)到 18日的 20点(UTC)
风速25节,风向西,有时为40节阵风
能見度: 3000
多云层高于1400英尺
多云层高于2000英尺, 积雨云.
大阵雨, 小冰雹或雪球
几率 30% :
短暂存在
从 18日的 20点(UTC)到 19日的 06点(UTC)
风速18节,风向西,有时为30节阵风
能見度: 7000
阵雨
成为
从 19日的 06点(UTC)到 19日的 09点(UTC)
风速9节,风向南转西南
短暂存在
从 19日的 09点(UTC)到 19日的 18点(UTC)
能見度: 8000
多云层高于1400英尺
短暂存在
从 19日的 16点(UTC)到 19日的 18点(UTC)
风速15节,风向西南,有时为25节阵风

TAF: EGGP 181702Z 1818/1918 26015KT 9999 SCT030 TEMPO 1818/1820 27018G30KT 7000 SHRA PROB30 TEMPO 1818/1820 28025G40KT 3000 +SHRAGS BKN014 BKN020CB PROB30 TEMPO 1820/1906 27018G30KT 7000 SHRA BECMG 1906/1909 20009KT TEMPO 1909/1918 8000 RA BKN014 TEMPO 1916/1918 23015G25KT

超过4000个机场的气象观测和天气预报(METAR&TAF报告)。

可查询的气象台以黄色和红色小点在地图上表示。

将鼠标移到小点上方,可查看气象台名称。

然后点击查看天气观测和预报。

如需切换地图:点击带黑十字的绿色按钮放大地图;点击带横线的绿色按钮缩小地图;或者点击绿色箭头查看邻近地区的地图。


METAR-TAF: